Time;durP1;ratioP1;P1;durP2;ratioP2;P2;SDS_P1;SDS_P2;PMS_P1;PMS_P2;Temp;Humidity;BMP_temperature;BMP_pressure;BME280_temperature;BME280_humidity;BME280_pressure;Samples;Min_cycle;Max_cycle;Signal;HPM_P1;HPM_P2
2022/02/27 00:01:41;;;;;;;;;;;21.50;30.30;;;;;;5055920;28;20003;-43
2022/02/27 00:04:07;;;;;;;;;;;21.40;30.20;;;;;;5056109;28;19913;-54
2022/02/27 00:06:33;;;;;;;;;;;21.40;30.20;;;;;;5056443;28;19920;-48
2022/02/27 00:08:58;;;;;;;;;;;21.40;30.90;;;;;;5075142;28;19908;-51
2022/02/27 00:11:24;;;;;;;;;;;21.40;30.30;;;;;;5076119;28;20248;-49
2022/02/27 00:13:51;;;;;;;;;;;21.40;30.50;;;;;;5075018;28;20212;-51
2022/02/27 00:16:16;;;;;;;;;;;21.40;30.30;;;;;;5075782;28;19919;-48
2022/02/27 00:18:42;;;;;;;;;;;21.40;30.30;;;;;;5074403;28;19923;-49
2022/02/27 00:21:08;;;;;;;;;;;21.40;30.30;;;;;;5074516;28;20229;-48
2022/02/27 00:23:33;;;;;;;;;;;21.40;30.30;;;;;;5056716;28;20311;-52
2022/02/27 00:25:59;;;;;;;;;;;21.40;30.30;;;;;;5055618;28;19986;-52
2022/02/27 00:28:24;;;;;;;;;;;21.40;30.30;;;;;;5072225;28;19920;-50
2022/02/27 00:30:50;;;;;;;;;;;21.40;30.30;;;;;;5073715;28;20298;-49
2022/02/27 00:33:16;;;;;;;;;;;21.40;30.20;;;;;;5055317;28;19909;-51
2022/02/27 00:35:42;;;;;;;;;;;21.40;30.20;;;;;;5055891;28;20336;-52
2022/02/27 00:38:07;;;;;;;;;;;21.40;30.20;;;;;;5071237;28;19924;-46
2022/02/27 00:40:34;;;;;;;;;;;21.30;30.10;;;;;;5089774;28;20307;-56
2022/02/27 00:43:00;;;;;;;;;;;21.40;30.20;;;;;;5090456;28;19908;-49
2022/02/27 00:45:25;;;;;;;;;;;21.40;30.20;;;;;;5075716;28;19908;-52
2022/02/27 00:47:51;;;;;;;;;;;21.40;30.10;;;;;;5075375;28;19908;-51
2022/02/27 00:50:17;;;;;;;;;;;21.40;30.10;;;;;;5072565;28;20247;-49
2022/02/27 00:52:43;;;;;;;;;;;21.30;30.10;;;;;;5073040;28;20331;-50
2022/02/27 00:55:09;;;;;;;;;;;21.30;30.00;;;;;;5073469;28;19908;-51
2022/02/27 00:57:35;;;;;;;;;;;21.30;30.00;;;;;;5055380;28;19921;-53
2022/02/27 01:00:01;;;;;;;;;;;21.30;30.00;;;;;;5055686;28;19909;-55
2022/02/27 01:02:26;;;;;;;;;;;21.30;30.00;;;;;;5057837;28;19931;-46
2022/02/27 01:04:52;;;;;;;;;;;21.30;30.00;;;;;;5075745;28;19912;-51
2022/02/27 01:07:18;;;;;;;;;;;21.30;30.00;;;;;;5073528;28;19913;-48
2022/02/27 01:09:43;;;;;;;;;;;21.30;30.00;;;;;;5075353;28;20274;-54
2022/02/27 01:12:09;;;;;;;;;;;21.30;30.00;;;;;;5074339;28;20240;-51
2022/02/27 01:14:35;;;;;;;;;;;21.30;30.00;;;;;;5071052;28;19916;-50
2022/02/27 01:17:06;;;;;;;;;;;21.20;30.00;;;;;;5054753;28;19917;-49
2022/02/27 01:19:32;;;;;;;;;;;21.30;30.00;;;;;;5054126;28;19948;-53
2022/02/27 01:21:58;;;;;;;;;;;21.30;30.00;;;;;;5069596;28;19999;-48
2022/02/27 01:24:24;;;;;;;;;;;21.20;29.90;;;;;;5074210;28;20378;-49
2022/02/27 01:26:49;;;;;;;;;;;21.20;29.90;;;;;;5074776;28;20008;-49
2022/02/27 01:29:15;;;;;;;;;;;21.20;29.90;;;;;;5074207;28;20014;-51
2022/02/27 01:31:41;;;;;;;;;;;21.20;29.90;;;;;;5054911;28;20262;-46
2022/02/27 01:34:06;;;;;;;;;;;21.20;29.90;;;;;;5054159;28;19920;-49
2022/02/27 01:36:32;;;;;;;;;;;21.20;29.90;;;;;;5053917;28;19945;-48
2022/02/27 01:38:57;;;;;;;;;;;21.20;29.90;;;;;;5053804;28;19931;-50
2022/02/27 01:41:23;;;;;;;;;;;21.20;29.90;;;;;;5054833;28;19916;-51
2022/02/27 01:43:49;;;;;;;;;;;21.20;29.90;;;;;;5070469;28;19909;-50
2022/02/27 01:46:17;;;;;;;;;;;21.20;29.90;;;;;;5071020;28;19919;-51
2022/02/27 01:48:43;;;;;;;;;;;21.20;29.90;;;;;;5073825;28;19919;-48
2022/02/27 01:51:08;;;;;;;;;;;21.20;29.90;;;;;;5073607;28;19912;-49
2022/02/27 01:53:34;;;;;;;;;;;21.20;29.90;;;;;;5074420;28;20255;-47
2022/02/27 01:56:00;;;;;;;;;;;21.20;29.90;;;;;;5075916;28;19917;-52
2022/02/27 01:58:26;;;;;;;;;;;21.20;29.90;;;;;;5077782;28;19920;-48
2022/02/27 02:00:52;;;;;;;;;;;21.20;29.80;;;;;;5076709;28;19912;-53
2022/02/27 02:03:18;;;;;;;;;;;21.20;29.80;;;;;;5077242;28;19909;-53
2022/02/27 02:05:43;;;;;;;;;;;21.20;29.80;;;;;;5065025;28;19909;-50
2022/02/27 02:08:09;;;;;;;;;;;21.20;29.80;;;;;;5058246;28;20291;-48
2022/02/27 02:10:36;;;;;;;;;;;21.20;29.80;;;;;;5073722;28;19909;-51
2022/02/27 02:13:04;;;;;;;;;;;21.10;29.80;;;;;;5074092;28;19963;-50
2022/02/27 02:15:30;;;;;;;;;;;21.10;30.30;;;;;;5067356;28;19943;-48
2022/02/27 02:17:56;;;;;;;;;;;21.10;29.80;;;;;;5077047;28;19923;-48
2022/02/27 02:20:22;;;;;;;;;;;21.10;29.80;;;;;;5076722;28;20362;-51
2022/02/27 02:22:53;;;;;;;;;;;21.10;29.80;;;;;;5076715;28;19961;-50
2022/02/27 02:25:19;;;;;;;;;;;21.10;29.80;;;;;;5075970;28;20324;-50
2022/02/27 02:27:46;;;;;;;;;;;21.10;29.80;;;;;;5077191;28;20220;-49
2022/02/27 02:30:12;;;;;;;;;;;21.10;29.80;;;;;;5076279;28;19924;-47
2022/02/27 02:32:50;;;;;;;;;;;21.10;29.80;;;;;;5076089;28;19961;-52
2022/02/27 02:35:16;;;;;;;;;;;21.10;29.80;;;;;;5076474;28;19919;-51
2022/02/27 02:37:41;;;;;;;;;;;21.10;29.80;;;;;;5077103;28;19916;-53
2022/02/27 02:40:07;;;;;;;;;;;21.10;29.80;;;;;;5076260;28;20244;-53
2022/02/27 02:42:38;;;;;;;;;;;21.10;29.80;;;;;;5076964;28;19908;-50
2022/02/27 02:45:04;;;;;;;;;;;21.10;29.80;;;;;;5069367;28;19977;-49
2022/02/27 02:47:30;;;;;;;;;;;21.00;29.70;;;;;;5057274;28;19909;-46
2022/02/27 02:49:56;;;;;;;;;;;21.00;29.70;;;;;;5063633;28;20014;-50
2022/02/27 02:52:21;;;;;;;;;;;21.00;29.70;;;;;;5076581;28;19916;-50
2022/02/27 02:54:47;;;;;;;;;;;21.00;29.70;;;;;;5071201;28;19995;-48
2022/02/27 02:57:14;;;;;;;;;;;21.00;29.70;;;;;;5057884;28;19943;-51
2022/02/27 02:59:39;;;;;;;;;;;21.00;29.70;;;;;;5058456;28;19909;-53
2022/02/27 03:02:09;;;;;;;;;;;21.00;29.70;;;;;;5057324;28;20222;-53
2022/02/27 03:04:38;;;;;;;;;;;21.00;29.70;;;;;;5057367;28;19909;-49
2022/02/27 03:07:04;;;;;;;;;;;21.00;29.70;;;;;;5057186;28;19944;-53
2022/02/27 03:09:31;;;;;;;;;;;21.00;29.70;;;;;;5057253;28;20007;-51
2022/02/27 03:11:56;;;;;;;;;;;21.00;29.70;;;;;;5072555;28;19967;-52
2022/02/27 03:14:22;;;;;;;;;;;21.00;29.60;;;;;;5075967;28;19948;-48
2022/02/27 03:16:48;;;;;;;;;;;21.00;29.60;;;;;;5077021;28;19974;-53
2022/02/27 03:19:13;;;;;;;;;;;21.00;29.60;;;;;;5076017;28;19916;-52
2022/02/27 03:21:39;;;;;;;;;;;21.00;29.60;;;;;;5077302;28;19908;-52
2022/02/27 03:24:05;;;;;;;;;;;21.00;29.60;;;;;;5076513;28;19908;-51
2022/02/27 03:26:30;;;;;;;;;;;21.00;29.60;;;;;;5056153;28;20343;-51
2022/02/27 03:28:56;;;;;;;;;;;21.00;29.60;;;;;;5057232;28;19916;-49
2022/02/27 03:31:22;;;;;;;;;;;21.00;29.60;;;;;;5075440;28;19909;-47
2022/02/27 03:33:48;;;;;;;;;;;21.00;29.60;;;;;;5076481;28;19978;-52
2022/02/27 03:36:13;;;;;;;;;;;21.00;29.60;;;;;;5059412;28;19909;-54
2022/02/27 03:38:40;;;;;;;;;;;21.00;29.60;;;;;;5056608;28;19921;-48
2022/02/27 03:41:05;;;;;;;;;;;21.00;29.60;;;;;;5073168;28;19909;-50
2022/02/27 03:43:31;;;;;;;;;;;21.00;29.60;;;;;;5076565;28;20217;-53
2022/02/27 03:45:57;;;;;;;;;;;21.00;29.60;;;;;;5060331;28;20058;-49
2022/02/27 03:48:22;;;;;;;;;;;21.00;29.60;;;;;;5056521;28;19913;-47
2022/02/27 03:50:48;;;;;;;;;;;21.00;29.60;;;;;;5070359;28;19909;-50
2022/02/27 03:53:14;;;;;;;;;;;21.00;29.60;;;;;;5076392;28;20094;-50
2022/02/27 03:55:39;;;;;;;;;;;21.00;29.60;;;;;;5062342;28;19928;-50
2022/02/27 03:58:05;;;;;;;;;;;21.00;29.60;;;;;;5056497;28;19928;-50
2022/02/27 04:00:31;;;;;;;;;;;21.00;29.50;;;;;;5067266;28;19918;-48
2022/02/27 04:02:56;;;;;;;;;;;20.90;29.50;;;;;;5076396;28;19909;-48
2022/02/27 04:05:22;;;;;;;;;;;20.90;29.50;;;;;;5064443;28;20347;-50
2022/02/27 04:07:47;;;;;;;;;;;20.90;29.50;;;;;;5056465;28;19908;-48
2022/02/27 04:10:13;;;;;;;;;;;20.90;29.50;;;;;;5066032;28;20312;-49
2022/02/27 04:12:39;;;;;;;;;;;20.90;29.50;;;;;;5074753;28;19999;-53
2022/02/27 04:15:05;;;;;;;;;;;20.90;29.50;;;;;;5075913;28;19918;-49
2022/02/27 04:17:31;;;;;;;;;;;20.90;29.50;;;;;;5073399;28;20297;-47
2022/02/27 04:19:57;;;;;;;;;;;20.90;29.50;;;;;;5066493;28;20031;-47
2022/02/27 04:22:22;;;;;;;;;;;20.90;29.50;;;;;;5074851;28;19955;-48
2022/02/27 04:24:48;;;;;;;;;;;20.90;29.50;;;;;;5076152;28;19920;-51
2022/02/27 04:27:14;;;;;;;;;;;20.90;29.50;;;;;;5076150;28;19908;-51
2022/02/27 04:29:41;;;;;;;;;;;20.90;29.50;;;;;;5075153;28;19931;-48
2022/02/27 04:32:07;;;;;;;;;;;20.90;29.50;;;;;;5074724;28;19912;-50
2022/02/27 04:34:33;;;;;;;;;;;20.90;29.50;;;;;;5075886;28;19919;-53
2022/02/27 04:36:59;;;;;;;;;;;20.90;29.50;;;;;;5069391;28;19920;-50
2022/02/27 04:39:24;;;;;;;;;;;20.90;29.50;;;;;;5055920;28;19915;-48
2022/02/27 04:41:50;;;;;;;;;;;20.90;29.50;;;;;;5055656;28;19916;-53
2022/02/27 04:44:16;;;;;;;;;;;20.90;29.50;;;;;;5061061;28;19924;-49
2022/02/27 04:46:42;;;;;;;;;;;20.90;29.50;;;;;;5073827;28;20262;-52
2022/02/27 04:49:09;;;;;;;;;;;20.80;29.40;;;;;;5075341;28;19909;-50
2022/02/27 04:51:35;;;;;;;;;;;20.80;29.40;;;;;;5073339;28;19952;-48
2022/02/27 04:54:01;;;;;;;;;;;20.80;29.40;;;;;;5055482;28;19959;-50
2022/02/27 04:56:27;;;;;;;;;;;20.80;29.40;;;;;;5059852;28;19921;-47
2022/02/27 04:58:52;;;;;;;;;;;20.80;29.40;;;;;;5075399;28;19923;-50
2022/02/27 05:01:18;;;;;;;;;;;20.80;29.50;;;;;;5074414;28;19908;-53
2022/02/27 05:03:43;;;;;;;;;;;20.80;29.40;;;;;;5075324;28;19947;-50
2022/02/27 05:06:10;;;;;;;;;;;20.80;29.40;;;;;;5074694;28;20003;-53
2022/02/27 05:08:36;;;;;;;;;;;20.80;29.40;;;;;;5067182;28;19908;-46
2022/02/27 05:11:01;;;;;;;;;;;20.80;29.40;;;;;;5054682;28;19920;-47
2022/02/27 05:13:27;;;;;;;;;;;20.80;29.40;;;;;;5054968;28;19909;-56
2022/02/27 05:15:53;;;;;;;;;;;20.80;29.90;;;;;;5055128;28;19921;-48
2022/02/27 05:18:20;;;;;;;;;;;20.70;29.40;;;;;;5055511;28;19917;-51
2022/02/27 05:20:46;;;;;;;;;;;20.80;29.50;;;;;;5064659;28;20223;-49
2022/02/27 05:23:11;;;;;;;;;;;20.80;29.40;;;;;;5074985;28;19916;-51
2022/02/27 05:25:37;;;;;;;;;;;20.70;29.40;;;;;;5066694;28;19909;-50
2022/02/27 05:28:03;;;;;;;;;;;20.70;29.40;;;;;;5054793;28;19908;-48
2022/02/27 05:30:29;;;;;;;;;;;20.70;29.40;;;;;;5057716;28;19933;-52
2022/02/27 05:32:54;;;;;;;;;;;20.80;29.40;;;;;;5069944;28;19908;-52
2022/02/27 05:35:20;;;;;;;;;;;20.80;29.40;;;;;;5077696;28;19908;-51
2022/02/27 05:37:46;;;;;;;;;;;20.70;29.40;;;;;;5078316;28;19966;-54
2022/02/27 05:40:12;;;;;;;;;;;20.70;29.40;;;;;;5079190;28;19920;-52
2022/02/27 05:42:37;;;;;;;;;;;20.70;29.40;;;;;;5075930;28;19944;-52
2022/02/27 05:45:04;;;;;;;;;;;20.70;29.40;;;;;;5071989;28;19919;-47
2022/02/27 05:47:30;;;;;;;;;;;20.70;29.40;;;;;;5078173;28;19966;-52
2022/02/27 05:49:55;;;;;;;;;;;20.70;29.40;;;;;;5078589;28;20200;-49
2022/02/27 05:52:21;;;;;;;;;;;20.70;29.40;;;;;;5076995;28;19966;-48
2022/02/27 05:54:47;;;;;;;;;;;20.70;29.40;;;;;;5059497;28;19908;-51
2022/02/27 05:57:12;;;;;;;;;;;20.70;29.40;;;;;;5070109;28;20369;-48
2022/02/27 05:59:38;;;;;;;;;;;20.70;29.40;;;;;;5078487;28;19909;-48
2022/02/27 06:02:04;;;;;;;;;;;20.70;29.40;;;;;;5078206;28;19919;-53
2022/02/27 06:04:30;;;;;;;;;;;20.70;29.40;;;;;;5077837;28;19909;-45
2022/02/27 06:06:55;;;;;;;;;;;20.70;29.40;;;;;;5069126;28;19999;-50
2022/02/27 06:09:21;;;;;;;;;;;20.70;29.40;;;;;;5068284;28;19909;-48
2022/02/27 06:11:47;;;;;;;;;;;20.70;29.40;;;;;;5077979;28;20217;-50
2022/02/27 06:14:13;;;;;;;;;;;20.60;29.30;;;;;;5077413;28;20032;-47
2022/02/27 06:16:38;;;;;;;;;;;20.60;29.30;;;;;;5078460;28;19951;-49
2022/02/27 06:19:04;;;;;;;;;;;20.70;29.40;;;;;;5076474;28;19920;-51
2022/02/27 06:21:30;;;;;;;;;;;20.70;29.40;;;;;;5077518;28;20247;-54
2022/02/27 06:23:55;;;;;;;;;;;20.70;29.40;;;;;;5073749;28;20235;-49
2022/02/27 06:26:21;;;;;;;;;;;20.70;29.40;;;;;;5068594;28;19908;-49
2022/02/27 06:28:46;;;;;;;;;;;20.60;29.30;;;;;;5075571;28;19919;-50
2022/02/27 06:31:12;;;;;;;;;;;20.60;29.80;;;;;;5078148;28;19912;-51
2022/02/27 06:33:38;;;;;;;;;;;20.60;29.80;;;;;;5076424;28;20222;-46
2022/02/27 06:36:03;;;;;;;;;;;20.60;29.30;;;;;;5077145;28;19908;-46
2022/02/27 06:38:29;;;;;;;;;;;20.60;29.30;;;;;;5077884;28;20049;-49
2022/02/27 06:40:55;;;;;;;;;;;20.60;29.40;;;;;;5076270;28;19971;-53
2022/02/27 06:43:20;;;;;;;;;;;20.60;29.30;;;;;;5077900;28;19919;-49
2022/02/27 06:45:46;;;;;;;;;;;20.60;29.40;;;;;;5077813;28;19944;-51
2022/02/27 06:48:12;;;;;;;;;;;20.60;29.30;;;;;;5077471;28;19923;-51
2022/02/27 06:50:37;;;;;;;;;;;20.60;29.30;;;;;;5077360;28;19908;-51
2022/02/27 06:53:03;;;;;;;;;;;20.60;29.30;;;;;;5076923;28;19927;-52
2022/02/27 06:55:29;;;;;;;;;;;20.60;29.30;;;;;;5078275;28;19969;-47
2022/02/27 06:57:54;;;;;;;;;;;20.60;29.30;;;;;;5076707;28;19927;-51
2022/02/27 07:00:20;;;;;;;;;;;20.60;29.30;;;;;;5075796;28;19920;-52
2022/02/27 07:02:46;;;;;;;;;;;20.60;29.30;;;;;;5077017;28;19919;-50
2022/02/27 07:05:12;;;;;;;;;;;20.60;29.40;;;;;;5076426;28;19948;-46
2022/02/27 07:07:38;;;;;;;;;;;20.60;29.40;;;;;;5077537;28;19908;-48
2022/02/27 07:10:04;;;;;;;;;;;20.50;29.40;;;;;;5065812;28;19915;-51
2022/02/27 07:12:30;;;;;;;;;;;20.60;29.40;;;;;;5057230;28;19920;-51
2022/02/27 07:14:57;;;;;;;;;;;20.50;29.40;;;;;;5064588;28;19974;-52
2022/02/27 07:17:23;;;;;;;;;;;20.60;29.40;;;;;;5077156;28;19985;-48
2022/02/27 07:19:48;;;;;;;;;;;20.50;29.40;;;;;;5076546;28;20327;-46
2022/02/27 07:22:14;;;;;;;;;;;20.50;29.40;;;;;;5077024;28;19919;-47
2022/02/27 07:24:40;;;;;;;;;;;20.50;29.40;;;;;;5064019;28;20015;-56
2022/02/27 07:27:05;;;;;;;;;;;20.50;29.40;;;;;;5065248;28;20693;-47
2022/02/27 07:29:31;;;;;;;;;;;20.60;29.40;;;;;;5056955;28;19909;-49
2022/02/27 07:31:57;;;;;;;;;;;20.50;29.40;;;;;;5058732;28;19920;-50
2022/02/27 07:34:23;;;;;;;;;;;20.50;29.30;;;;;;5071219;28;19909;-50
2022/02/27 07:36:51;;;;;;;;;;;20.60;29.40;;;;;;5057095;28;19986;-52
2022/02/27 07:39:20;;;;;;;;;;;20.60;29.40;;;;;;5060334;28;20278;-49
2022/02/27 07:41:46;;;;;;;;;;;20.60;29.30;;;;;;5076767;28;19919;-51
2022/02/27 07:44:14;;;;;;;;;;;20.60;29.30;;;;;;5073467;28;19908;-47
2022/02/27 07:46:39;;;;;;;;;;;20.60;29.30;;;;;;5060331;28;19908;-51
2022/02/27 07:49:05;;;;;;;;;;;20.60;29.80;;;;;;5069969;28;19909;-53
2022/02/27 07:51:31;;;;;;;;;;;20.60;29.30;;;;;;5056881;28;20327;-48
2022/02/27 07:53:57;;;;;;;;;;;20.50;29.20;;;;;;5057440;28;19927;-43
2022/02/27 07:56:23;;;;;;;;;;;20.50;29.20;;;;;;5056490;28;19959;-49
2022/02/27 07:58:48;;;;;;;;;;;20.50;29.20;;;;;;5062724;28;19916;-48
2022/02/27 08:01:14;;;;;;;;;;;20.50;29.20;;;;;;5076430;28;19962;-51
2022/02/27 08:03:40;;;;;;;;;;;20.50;29.20;;;;;;5076008;28;19978;-53
2022/02/27 08:06:06;;;;;;;;;;;20.50;29.30;;;;;;5075603;28;20339;-49
2022/02/27 08:08:33;;;;;;;;;;;20.50;29.20;;;;;;5075839;28;19912;-50
2022/02/27 08:10:59;;;;;;;;;;;20.50;29.20;;;;;;5073067;28;19915;-48
2022/02/27 08:13:24;;;;;;;;;;;20.60;29.30;;;;;;5072416;28;19921;-49
2022/02/27 08:15:50;;;;;;;;;;;20.60;29.30;;;;;;5074719;28;19908;-50
2022/02/27 08:18:17;;;;;;;;;;;20.60;29.30;;;;;;5075907;28;20285;-50
2022/02/27 08:20:43;;;;;;;;;;;20.70;29.40;;;;;;5075940;28;19935;-50
2022/02/27 08:23:08;;;;;;;;;;;20.80;29.40;;;;;;5075917;28;20003;-44
2022/02/27 08:25:34;;;;;;;;;;;20.80;29.30;;;;;;5075158;28;20066;-51
2022/02/27 08:28:00;;;;;;;;;;;20.90;29.30;;;;;;5075918;28;19915;-52
2022/02/27 08:30:25;;;;;;;;;;;21.00;29.30;;;;;;5074740;28;19919;-49
2022/02/27 08:32:51;;;;;;;;;;;21.00;29.30;;;;;;5075872;28;19908;-50
2022/02/27 08:35:17;;;;;;;;;;;21.00;29.50;;;;;;5075173;28;20238;-50
2022/02/27 08:37:43;;;;;;;;;;;21.10;29.70;;;;;;5075470;28;19970;-51
2022/02/27 08:40:09;;;;;;;;;;;21.20;30.00;;;;;;5075499;28;20315;-48
2022/02/27 08:42:35;;;;;;;;;;;21.20;30.00;;;;;;5075559;28;19908;-48
2022/02/27 08:45:00;;;;;;;;;;;21.20;30.20;;;;;;5075576;28;19909;-45
2022/02/27 08:47:26;;;;;;;;;;;21.30;30.30;;;;;;5075600;28;19908;-50
2022/02/27 08:49:52;;;;;;;;;;;21.40;30.40;;;;;;5075890;28;19916;-47
2022/02/27 08:52:17;;;;;;;;;;;21.40;30.50;;;;;;5075324;28;19908;-54
2022/02/27 08:54:46;;;;;;;;;;;21.50;30.60;;;;;;5074946;28;19916;-48
2022/02/27 08:57:12;;;;;;;;;;;21.60;30.70;;;;;;5075111;28;19916;-52
2022/02/27 08:59:38;;;;;;;;;;;21.60;30.70;;;;;;5075753;28;19916;-47
2022/02/27 09:02:04;;;;;;;;;;;21.70;30.70;;;;;;5075431;28;20232;-48
2022/02/27 09:04:29;;;;;;;;;;;21.80;30.70;;;;;;5074999;28;19913;-45
2022/02/27 09:06:55;;;;;;;;;;;21.80;30.60;;;;;;5059405;28;19960;-51
2022/02/27 09:09:21;;;;;;;;;;;21.80;30.60;;;;;;5068927;28;19908;-47
2022/02/27 09:11:46;;;;;;;;;;;21.90;30.70;;;;;;5075200;28;19908;-48
2022/02/27 09:14:13;;;;;;;;;;;21.90;30.80;;;;;;5074763;28;19913;-47
2022/02/27 09:16:38;;;;;;;;;;;22.00;31.00;;;;;;5074840;28;19908;-49
2022/02/27 09:19:04;;;;;;;;;;;22.00;31.00;;;;;;5074784;28;19908;-45
2022/02/27 09:21:30;;;;;;;;;;;22.10;31.00;;;;;;5074994;28;20297;-50
2022/02/27 09:23:55;;;;;;;;;;;22.10;31.00;;;;;;5075043;28;19911;-49
2022/02/27 09:26:24;;;;;;;;;;;22.10;31.10;;;;;;5074748;28;19909;-48
2022/02/27 09:28:53;;;;;;;;;;;22.10;31.00;;;;;;5064516;28;19909;-45
2022/02/27 09:31:18;;;;;;;;;;;22.20;31.00;;;;;;5074885;28;20273;-48
2022/02/27 09:33:45;;;;;;;;;;;22.20;30.90;;;;;;5065599;28;19998;-50
2022/02/27 09:36:11;;;;;;;;;;;22.30;30.90;;;;;;5074660;28;19916;-49
2022/02/27 09:38:38;;;;;;;;;;;22.30;30.80;;;;;;5074245;28;20024;-51
2022/02/27 09:41:04;;;;;;;;;;;22.30;30.70;;;;;;5072933;28;19908;-49
2022/02/27 09:43:30;;;;;;;;;;;22.30;30.70;;;;;;5074886;28;20208;-48
2022/02/27 09:45:55;;;;;;;;;;;22.30;30.60;;;;;;5074963;28;19915;-46
2022/02/27 09:48:21;;;;;;;;;;;22.30;30.60;;;;;;5074916;28;19909;-47
2022/02/27 09:50:48;;;;;;;;;;;22.30;30.50;;;;;;5074861;28;20011;-51
2022/02/27 09:53:14;;;;;;;;;;;22.30;30.50;;;;;;5073878;28;19942;-49
2022/02/27 09:55:40;;;;;;;;;;;22.30;30.50;;;;;;5072040;28;19917;-47
2022/02/27 09:58:06;;;;;;;;;;;22.30;30.50;;;;;;5074368;28;20030;-47
2022/02/27 10:00:32;;;;;;;;;;;22.30;30.50;;;;;;5074398;28;20355;-47
2022/02/27 10:03:05;;;;;;;;;;;22.30;30.50;;;;;;5073570;28;19991;-48
2022/02/27 10:05:31;;;;;;;;;;;22.30;30.50;;;;;;5074769;28;19969;-46
2022/02/27 10:07:58;;;;;;;;;;;22.30;30.40;;;;;;5073426;28;20223;-47
2022/02/27 10:10:24;;;;;;;;;;;22.40;30.30;;;;;;5074738;28;19920;-53
2022/02/27 10:12:49;;;;;;;;;;;22.40;30.20;;;;;;5074443;28;20320;-46
2022/02/27 10:15:15;;;;;;;;;;;22.40;30.10;;;;;;5074944;28;20069;-52
2022/02/27 10:17:42;;;;;;;;;;;22.40;30.00;;;;;;5077037;28;19927;-48
2022/02/27 10:20:09;;;;;;;;;;;22.40;30.60;;;;;;5078361;28;19919;-48
2022/02/27 10:22:36;;;;;;;;;;;22.40;30.00;;;;;;5078290;28;19908;-45
2022/02/27 10:25:06;;;;;;;;;;;22.40;29.90;;;;;;5078103;28;19948;-51
2022/02/27 10:27:42;;;;;;;;;;;22.40;29.80;;;;;;5078264;28;20228;-46
2022/02/27 10:30:15;;;;;;;;;;;22.40;29.80;;;;;;5077829;28;19916;-45
2022/02/27 10:32:48;;;;;;;;;;;22.40;29.70;;;;;;5077685;28;19908;-45
2022/02/27 10:35:32;;;;;;;;;;;22.40;29.70;;;;;;5077056;28;19908;-49
2022/02/27 10:37:58;;;;;;;;;;;22.40;29.60;;;;;;5077787;28;19917;-49
2022/02/27 10:40:34;;;;;;;;;;;22.40;29.60;;;;;;5076957;28;19909;-44
2022/02/27 10:43:00;;;;;;;;;;;22.40;29.50;;;;;;5077850;28;19916;-45
2022/02/27 10:45:26;;;;;;;;;;;22.40;29.50;;;;;;5077643;28;20275;-48
2022/02/27 10:48:00;;;;;;;;;;;22.40;29.40;;;;;;5078229;28;19959;-47
2022/02/27 10:50:28;;;;;;;;;;;22.40;29.40;;;;;;5077888;28;19908;-53
2022/02/27 10:52:53;;;;;;;;;;;22.40;29.30;;;;;;5077931;28;19913;-48
2022/02/27 10:55:19;;;;;;;;;;;22.40;29.30;;;;;;5077485;28;19912;-48
2022/02/27 10:57:45;;;;;;;;;;;22.40;29.30;;;;;;5077431;28;20216;-48
2022/02/27 11:00:14;;;;;;;;;;;22.40;29.30;;;;;;5077679;28;19920;-45
2022/02/27 11:02:43;;;;;;;;;;;22.40;29.20;;;;;;5076446;28;19916;-46
2022/02/27 11:05:10;;;;;;;;;;;22.40;29.20;;;;;;5076616;28;19916;-57
2022/02/27 11:07:37;;;;;;;;;;;22.40;29.20;;;;;;5076864;28;19908;-48
2022/02/27 11:10:04;;;;;;;;;;;22.30;29.20;;;;;;5066032;28;20362;-51
2022/02/27 11:12:30;;;;;;;;;;;22.30;29.40;;;;;;5073540;28;19920;-52
2022/02/27 11:14:55;;;;;;;;;;;22.30;29.70;;;;;;5062705;28;20000;-51
2022/02/27 11:17:22;;;;;;;;;;;22.30;30.40;;;;;;5074241;28;20011;-59
2022/02/27 11:19:49;;;;;;;;;;;22.40;31.50;;;;;;5070186;28;19908;-55
2022/02/27 11:22:15;;;;;;;;;;;22.40;32.10;;;;;;5073603;28;19916;-50
2022/02/27 11:24:42;;;;;;;;;;;22.40;32.70;;;;;;5075426;28;19923;-49
2022/02/27 11:27:08;;;;;;;;;;;22.50;33.40;;;;;;5075037;28;19908;-54
2022/02/27 11:29:34;;;;;;;;;;;22.50;34.00;;;;;;5070510;28;19978;-53
2022/02/27 11:32:00;;;;;;;;;;;22.60;34.80;;;;;;5076448;28;19920;-56
2022/02/27 11:34:27;;;;;;;;;;;22.60;35.50;;;;;;5076586;28;20002;-55
2022/02/27 11:36:54;;;;;;;;;;;22.70;36.10;;;;;;5067906;28;19912;-46
2022/02/27 11:42:04;;;;;;;;;;;22.70;35.90;;;;;;5057863;28;19971;-48
2022/02/27 11:44:34;;;;;;;;;;;22.80;35.60;;;;;;5070250;28;19952;-49
2022/02/27 11:47:08;;;;;;;;;;;22.80;35.20;;;;;;5066124;28;20008;-46
2022/02/27 11:49:35;;;;;;;;;;;22.90;35.00;;;;;;5076320;28;19999;-44
2022/02/27 11:52:07;;;;;;;;;;;22.90;34.90;;;;;;5075843;28;20318;-47
2022/02/27 11:54:46;;;;;;;;;;;22.90;34.60;;;;;;5076047;28;20401;-45
2022/02/27 11:57:13;;;;;;;;;;;22.90;34.20;;;;;;5076650;28;19985;-41
2022/02/27 11:59:59;;;;;;;;;;;22.90;33.80;;;;;;5061386;28;20003;-55
2022/02/27 12:02:35;;;;;;;;;;;22.90;33.50;;;;;;5061033;28;19909;-45
2022/02/27 12:05:02;;;;;;;;;;;23.00;34.20;;;;;;5071224;28;19919;-49
2022/02/27 12:07:28;;;;;;;;;;;22.90;34.90;;;;;;5075449;28;20302;-48
2022/02/27 12:09:58;;;;;;;;;;;23.00;35.40;;;;;;5075765;28;19912;-54
2022/02/27 12:12:43;;;;;;;;;;;23.00;36.00;;;;;;5066204;28;20239;-48
2022/02/27 12:15:27;;;;;;;;;;;23.10;35.10;;;;;;5070777;28;19947;-53
2022/02/27 12:17:59;;;;;;;;;;;23.10;34.70;;;;;;5067746;28;20209;-47
2022/02/27 12:20:36;;;;;;;;;;;23.10;34.40;;;;;;5067427;28;20373;-47
2022/02/27 12:23:02;;;;;;;;;;;23.10;34.40;;;;;;5071952;28;19919;-45
2022/02/27 12:25:34;;;;;;;;;;;23.10;34.40;;;;;;5069920;28;19920;-49
2022/02/27 12:28:00;;;;;;;;;;;23.10;34.10;;;;;;5066294;28;19918;-46
2022/02/27 12:30:26;;;;;;;;;;;23.10;34.10;;;;;;5073457;28;19908;-51
2022/02/27 12:32:55;;;;;;;;;;;23.10;34.60;;;;;;5058832;28;19919;-48
2022/02/27 12:35:20;;;;;;;;;;;23.10;35.30;;;;;;5062750;28;19909;-48
2022/02/27 12:37:46;;;;;;;;;;;23.20;35.90;;;;;;5062638;28;19923;-51
2022/02/27 12:40:12;;;;;;;;;;;23.20;35.90;;;;;;5071875;28;20346;-44
2022/02/27 12:42:38;;;;;;;;;;;23.20;35.60;;;;;;5058954;28;20291;-47
2022/02/27 12:45:04;;;;;;;;;;;23.20;35.20;;;;;;5056609;28;19982;-49
2022/02/27 12:47:32;;;;;;;;;;;23.20;35.50;;;;;;5061046;28;19999;-49
2022/02/27 12:50:16;;;;;;;;;;;23.20;34.50;;;;;;5068843;28;19919;-46
2022/02/27 12:52:43;;;;;;;;;;;23.20;34.20;;;;;;5060362;28;19923;-43
2022/02/27 12:55:14;;;;;;;;;;;23.20;33.90;;;;;;5066706;28;20007;-47
2022/02/27 12:57:52;;;;;;;;;;;23.20;33.70;;;;;;5057330;28;21488;-51
2022/02/27 13:00:20;;;;;;;;;;;23.20;33.40;;;;;;5067774;28;19909;-45
2022/02/27 13:02:48;;;;;;;;;;;23.20;33.30;;;;;;5060939;28;20222;-47
2022/02/27 13:05:15;;;;;;;;;;;23.10;33.80;;;;;;5060319;28;19912;-48
2022/02/27 13:07:41;;;;;;;;;;;23.10;33.00;;;;;;5064970;28;19921;-46
2022/02/27 13:10:13;;;;;;;;;;;23.00;32.90;;;;;;5056011;28;20020;-45
2022/02/27 13:12:38;;;;;;;;;;;23.10;32.90;;;;;;5057410;28;20015;-51
2022/02/27 13:15:05;;;;;;;;;;;23.00;32.70;;;;;;5055899;28;19991;-47
2022/02/27 13:17:35;;;;;;;;;;;23.00;32.60;;;;;;5063767;28;19916;-43
2022/02/27 13:20:19;;;;;;;;;;;23.00;32.60;;;;;;5070458;28;19959;-46
2022/02/27 13:22:50;;;;;;;;;;;23.00;32.50;;;;;;5070571;28;19970;-46
2022/02/27 13:25:15;;;;;;;;;;;22.90;32.40;;;;;;5065843;28;19919;-48
2022/02/27 13:27:46;;;;;;;;;;;22.90;32.30;;;;;;5072056;28;20307;-45
2022/02/27 13:30:14;;;;;;;;;;;22.90;32.30;;;;;;5066262;28;19916;-47
2022/02/27 13:32:41;;;;;;;;;;;22.90;32.30;;;;;;5063328;28;20425;-47
2022/02/27 13:35:07;;;;;;;;;;;22.90;32.20;;;;;;5065366;28;20193;-47
2022/02/27 13:37:33;;;;;;;;;;;22.80;32.10;;;;;;5055422;28;19931;-47
2022/02/27 13:40:06;;;;;;;;;;;22.80;32.10;;;;;;5069555;28;19908;-47
2022/02/27 13:42:33;;;;;;;;;;;22.80;32.00;;;;;;5072354;28;20587;-46
2022/02/27 13:44:59;;;;;;;;;;;22.80;32.00;;;;;;5060885;28;19913;-45
2022/02/27 13:47:26;;;;;;;;;;;22.80;31.90;;;;;;5072920;28;19915;-48
2022/02/27 13:49:52;;;;;;;;;;;22.80;31.90;;;;;;5062870;28;19913;-44
2022/02/27 13:52:19;;;;;;;;;;;22.80;31.90;;;;;;5064080;28;19919;-50
2022/02/27 13:54:44;;;;;;;;;;;22.80;31.80;;;;;;5066708;28;19958;-45
2022/02/27 13:57:10;;;;;;;;;;;22.80;31.80;;;;;;5075635;28;19916;-44
2022/02/27 13:59:37;;;;;;;;;;;22.80;31.80;;;;;;5059338;28;19909;-46
2022/02/27 14:02:03;;;;;;;;;;;22.80;31.70;;;;;;5071152;28;19927;-49
2022/02/27 14:04:28;;;;;;;;;;;22.80;31.60;;;;;;5066980;28;19909;-48
2022/02/27 14:06:54;;;;;;;;;;;22.80;31.50;;;;;;5075958;28;19909;-45
2022/02/27 14:09:19;;;;;;;;;;;22.80;31.50;;;;;;5072578;28;19930;-50
2022/02/27 14:11:45;;;;;;;;;;;22.70;31.40;;;;;;5076375;28;19942;-50
2022/02/27 14:14:11;;;;;;;;;;;22.80;31.40;;;;;;5070373;28;19912;-55
2022/02/27 14:16:38;;;;;;;;;;;22.80;31.40;;;;;;5071154;28;20335;-51